Time;durP1;ratioP1;P1;durP2;ratioP2;P2;SDS_P1;SDS_P2;PMS_P1;PMS_P2;Temp;Humidity;BMP_temperature;BMP_pressure;BME280_temperature;BME280_humidity;BME280_pressure;Samples;Min_cycle;Max_cycle;Signal;HPM_P1;HPM_P2
2021/04/08 00:01:35;;;;;;;2.97;2.70;;;;;;;2.07;81.19;96039.34;5052572;28;20236;-82
2021/04/08 00:04:01;;;;;;;3.13;2.80;;;;;;;2.13;80.21;96050.75;5045704;28;20202;-80
2021/04/08 00:06:27;;;;;;;3.43;2.70;;;;;;;1.98;81.27;96050.16;5059066;28;20225;-79
2021/04/08 00:08:53;;;;;;;2.70;2.50;;;;;;;2.11;80.16;96050.06;5048183;28;20233;-80
2021/04/08 00:11:19;;;;;;;4.03;2.60;;;;;;;2.14;80.79;96054.91;5063608;28;20240;-79
2021/04/08 00:13:45;;;;;;;2.90;2.60;;;;;;;2.22;80.48;96054.34;5065987;28;20805;-80
2021/04/08 00:16:12;;;;;;;3.27;2.80;;;;;;;2.27;79.77;96048.00;5048725;28;20226;-80
2021/04/08 00:18:38;;;;;;;3.50;2.60;;;;;;;2.19;80.29;96047.75;5060996;28;20892;-80
2021/04/08 00:21:04;;;;;;;3.97;2.80;;;;;;;2.13;80.17;96050.75;5065785;28;20233;-79
2021/04/08 00:23:30;;;;;;;3.93;2.70;;;;;;;2.07;79.86;96046.94;5051879;28;20305;-79
2021/04/08 00:25:56;;;;;;;6.17;2.60;;;;;;;2.00;81.05;96055.94;5044627;28;20234;-80
2021/04/08 00:28:22;;;;;;;2.93;2.63;;;;;;;1.93;80.58;96059.00;5041078;28;20229;-83
2021/04/08 00:30:49;;;;;;;3.10;2.70;;;;;;;1.94;80.89;96053.84;5033705;28;20693;-82
2021/04/08 00:33:19;;;;;;;3.03;2.47;;;;;;;2.04;79.95;96052.25;5044718;28;20205;-81
2021/04/08 00:35:46;;;;;;;3.73;2.90;;;;;;;2.10;80.16;96050.19;5055013;28;20617;-81
2021/04/08 00:38:13;;;;;;;3.07;2.60;;;;;;;2.07;79.57;96046.16;5049070;28;20226;-82
2021/04/08 00:40:40;;;;;;;3.47;2.60;;;;;;;2.14;79.62;96042.22;5033974;28;20656;-83
2021/04/08 00:43:06;;;;;;;3.13;2.30;;;;;;;2.05;79.14;96042.91;5042646;28;20236;-81
2021/04/08 00:45:33;;;;;;;3.07;2.67;;;;;;;2.03;79.56;96042.19;5054345;28;20205;-83
2021/04/08 00:47:59;;;;;;;3.60;2.57;;;;;;;2.04;78.88;96039.56;5043498;28;20221;-83
2021/04/08 00:50:27;;;;;;;2.57;2.20;;;;;;;2.05;77.54;96036.09;5052822;28;20236;-82
2021/04/08 00:52:56;;;;;;;3.03;2.27;;;;;;;2.05;77.82;96036.09;5045865;28;20225;-83
2021/04/08 00:55:25;;;;;;;3.37;2.40;;;;;;;2.14;77.63;96031.25;5033371;28;20237;-82
2021/04/08 00:57:53;;;;;;;3.27;2.50;;;;;;;2.16;76.57;96040.38;5038737;28;20250;-82
2021/04/08 01:00:19;;;;;;;5.20;2.40;;;;;;;2.27;76.05;96042.13;5053425;28;20229;-81
2021/04/08 01:02:45;;;;;;;2.73;2.53;;;;;;;2.26;74.96;96051.47;5048471;28;20761;-81
2021/04/08 01:05:12;;;;;;;2.90;2.40;;;;;;;2.28;74.51;96054.72;5033021;28;20313;-83
2021/04/08 01:07:39;;;;;;;3.97;2.53;;;;;;;2.32;74.61;96060.34;5035893;28;20278;-82
2021/04/08 01:10:07;;;;;;;2.40;2.20;;;;;;;2.29;74.77;96052.97;5052650;28;20296;-83
2021/04/08 01:12:33;;;;;;;2.50;2.30;;;;;;;2.40;74.75;96051.25;5037867;28;20198;-80
2021/04/08 01:14:59;;;;;;;3.00;2.20;;;;;;;2.50;73.75;96045.50;5052855;28;20240;-83
2021/04/08 01:17:31;;;;;;;2.83;2.10;;;;;;;2.52;71.99;96041.06;5036612;28;20222;-80
2021/04/08 01:20:43;;;;;;;3.37;2.20;;;;;;;2.57;70.84;96041.53;5032612;28;20604;-83
2021/04/08 01:23:37;;;;;;;3.37;2.10;;;;;;;2.66;70.33;96045.94;5032980;28;20251;-81
2021/04/08 01:26:19;;;;;;;2.57;2.10;;;;;;;2.72;70.00;96046.25;5035881;28;20236;-83
2021/04/08 01:28:48;;;;;;;3.67;1.90;;;;;;;2.62;69.58;96047.09;5052063;28;20217;-82
2021/04/08 01:31:18;;;;;;;4.97;2.47;;;;;;;2.64;69.17;96040.97;5047801;28;20620;-82
2021/04/08 01:33:47;;;;;;;5.80;2.17;;;;;;;2.55;69.05;96048.47;5037852;28;20209;-83
2021/04/08 01:36:18;;;;;;;2.13;1.93;;;;;;;2.59;68.81;96049.84;5049480;28;20716;-82
2021/04/08 01:38:46;;;;;;;3.33;1.83;;;;;;;2.62;68.69;96054.72;5032387;28;20232;-82
2021/04/08 01:41:14;;;;;;;2.17;1.97;;;;;;;2.70;68.93;96065.91;5033431;28;20232;-81
2021/04/08 01:43:44;;;;;;;2.20;2.00;;;;;;;2.64;67.93;96047.78;5032943;28;20231;-81
2021/04/08 01:46:12;;;;;;;5.23;2.23;;;;;;;2.70;69.26;96050.66;5049292;28;20225;-80
2021/04/08 01:48:42;;;;;;;3.93;2.43;;;;;;;2.72;68.48;96055.63;5033492;28;20237;-81
2021/04/08 01:51:10;;;;;;;2.10;1.90;;;;;;;2.63;68.00;96046.16;5046074;28;20214;-81
2021/04/08 01:53:42;;;;;;;2.83;2.20;;;;;;;2.68;68.01;96050.00;5031836;28;20229;-83
2021/04/08 01:56:10;;;;;;;3.10;2.20;;;;;;;2.74;67.85;96048.69;5052027;28;20229;-83
2021/04/08 01:58:37;;;;;;;2.37;2.17;;;;;;;2.78;67.20;96040.72;5051666;28;20232;-83
2021/04/08 02:01:04;;;;;;;2.77;2.10;;;;;;;2.81;67.53;96049.03;5031839;28;20234;-82
2021/04/08 02:03:31;;;;;;;2.87;2.13;;;;;;;2.80;66.98;96060.94;5032930;28;20190;-82
2021/04/08 02:05:59;;;;;;;4.37;2.10;;;;;;;2.76;66.75;96060.38;5051197;28;20606;-83
2021/04/08 02:08:27;;;;;;;2.13;1.70;;;;;;;2.56;66.86;96071.22;5051835;28;20244;-83
2021/04/08 02:10:54;;;;;;;3.67;2.37;;;;;;;2.48;69.25;96060.03;5036728;28;20300;-83
2021/04/08 02:13:21;;;;;;;2.20;1.90;;;;;;;2.48;69.79;96062.59;5051752;28;20221;-82
2021/04/08 02:15:49;;;;;;;2.63;2.10;;;;;;;2.62;69.71;96059.81;5034917;28;20198;-83
2021/04/08 02:18:17;;;;;;;2.93;1.90;;;;;;;2.67;67.44;96048.38;5031987;28;20202;-81
2021/04/08 02:20:45;;;;;;;2.10;1.90;;;;;;;2.66;66.92;96056.91;5046530;28;20251;-83
2021/04/08 02:23:17;;;;;;;2.60;1.93;;;;;;;2.70;66.54;96055.75;5051416;28;20650;-81
2021/04/08 02:25:43;;;;;;;2.40;1.97;;;;;;;2.75;66.03;96063.03;5051785;28;20642;-81
2021/04/08 02:28:10;;;;;;;2.83;2.13;;;;;;;2.78;66.07;96061.06;5052307;28;20228;-81
2021/04/08 02:30:46;;;;;;;5.20;2.27;;;;;;;2.86;65.75;96060.50;5039037;28;20221;-81
2021/04/08 02:33:15;;;;;;;2.80;1.90;;;;;;;2.95;65.95;96069.94;5036483;28;20276;-83
2021/04/08 02:35:41;;;;;;;2.10;1.90;;;;;;;2.96;65.98;96073.28;5037891;28;20327;-81
2021/04/08 02:38:07;;;;;;;2.33;1.97;;;;;;;2.98;66.05;96068.91;5036086;28;20217;-81
2021/04/08 02:40:34;;;;;;;3.93;2.00;;;;;;;3.04;67.15;96071.78;5045603;28;20288;-81
2021/04/08 02:43:00;;;;;;;2.20;2.00;;;;;;;3.10;66.61;96073.84;5037193;28;20202;-83
2021/04/08 02:45:26;;;;;;;2.13;1.93;;;;;;;3.14;67.12;96076.97;5044020;28;20198;-83
2021/04/08 02:47:52;;;;;;;3.93;2.10;;;;;;;3.20;67.45;96080.78;5050518;28;20226;-83
2021/04/08 02:50:18;;;;;;;3.23;2.40;;;;;;;3.24;67.71;96087.25;5035469;28;20229;-82
2021/04/08 02:52:53;;;;;;;4.30;2.17;;;;;;;3.22;67.27;96094.19;5035704;28;20237;-82
2021/04/08 02:55:24;;;;;;;2.43;1.93;;;;;;;3.28;67.41;96102.13;5054441;28;20728;-81
2021/04/08 02:57:58;;;;;;;2.83;1.97;;;;;;;3.23;68.25;96100.91;5055575;28;20213;-82
2021/04/08 03:00:29;;;;;;;2.30;2.00;;;;;;;3.13;68.03;96108.41;5044982;28;20260;-82
2021/04/08 03:02:59;;;;;;;3.10;2.17;;;;;;;3.21;67.89;96102.75;5055020;28;20236;-83
2021/04/08 03:05:26;;;;;;;2.93;2.00;;;;;;;3.28;68.30;96106.41;5054274;28;20225;-83
2021/04/08 03:07:54;;;;;;;2.77;2.10;;;;;;;3.25;68.74;96109.22;5054967;28;20294;-83
2021/04/08 03:10:21;;;;;;;3.50;2.30;;;;;;;3.22;69.02;96112.81;5054587;28;20224;-81
2021/04/08 03:12:49;;;;;;;2.23;2.03;;;;;;;3.09;69.87;96117.19;5055313;28;20196;-81
2021/04/08 03:15:22;;;;;;;2.50;2.30;;;;;;;3.00;71.50;96113.63;5037968;28;20206;-83
2021/04/08 03:17:50;;;;;;;4.77;2.40;;;;;;;2.94;72.94;96124.28;5035099;28;20226;-81
2021/04/08 03:20:17;;;;;;;3.83;2.40;;;;;;;2.94;73.71;96123.47;5051124;28;20225;-83
2021/04/08 03:22:44;;;;;;;2.77;2.27;;;;;;;2.90;74.35;96127.16;5054905;28;20600;-82
2021/04/08 03:25:11;;;;;;;3.67;2.53;;;;;;;2.91;74.96;96126.22;5052784;28;20221;-81
2021/04/08 03:27:39;;;;;;;2.63;2.40;;;;;;;2.93;74.88;96134.56;5055182;28;20205;-80
2021/04/08 03:30:09;;;;;;;2.97;2.40;;;;;;;2.96;74.49;96129.25;5038751;28;20231;-83
2021/04/08 03:32:36;;;;;;;2.60;2.40;;;;;;;2.92;73.83;96132.94;5035112;28;20226;-82
2021/04/08 03:35:07;;;;;;;3.93;2.67;;;;;;;2.94;73.83;96131.09;5050199;28;20233;-83
2021/04/08 03:37:33;;;;;;;3.70;2.50;;;;;;;2.97;73.65;96135.94;5054938;28;20236;-83
2021/04/08 03:40:00;;;;;;;3.70;2.77;;;;;;;2.95;73.28;96132.72;5052948;28;20221;-82
2021/04/08 03:42:26;;;;;;;2.93;2.30;;;;;;;2.97;73.31;96135.94;5054330;28;20288;-81
2021/04/08 03:44:52;;;;;;;2.30;2.10;;;;;;;2.98;73.15;96135.03;5040942;28;20229;-82
2021/04/08 03:47:21;;;;;;;4.90;2.93;;;;;;;3.03;73.03;96136.31;5045964;28;20229;-82
2021/04/08 03:49:50;;;;;;;4.27;2.63;;;;;;;3.02;73.01;96136.41;5040564;28;20230;-81
2021/04/08 03:52:17;;;;;;;3.23;2.30;;;;;;;2.94;73.27;96123.47;5034586;28;20233;-82
2021/04/08 03:54:45;;;;;;;4.67;2.80;;;;;;;2.99;72.45;96137.44;5046865;28;20200;-83
2021/04/08 03:57:14;;;;;;;3.40;2.43;;;;;;;2.95;72.33;96141.16;5046410;28;20225;-82
2021/04/08 03:59:40;;;;;;;4.53;2.50;;;;;;;2.92;73.31;96143.09;5045984;28;20233;-81
2021/04/08 04:02:07;;;;;;;3.23;2.50;;;;;;;2.91;72.36;96142.28;5052488;28;20716;-81
2021/04/08 04:04:35;;;;;;;3.30;2.70;;;;;;;2.92;72.58;96145.66;5034084;28;20230;-80
2021/04/08 04:07:02;;;;;;;2.83;2.40;;;;;;;2.98;72.37;96145.19;5034372;28;20195;-82
2021/04/08 04:09:28;;;;;;;2.70;2.30;;;;;;;2.96;71.76;96139.41;5034414;28;20232;-81
2021/04/08 04:11:56;;;;;;;5.47;2.70;;;;;;;2.99;71.57;96141.72;5034015;28;20218;-82
2021/04/08 04:14:26;;;;;;;2.40;2.20;;;;;;;3.01;71.40;96144.97;5052759;28;20221;-80
2021/04/08 04:16:55;;;;;;;4.30;2.33;;;;;;;3.00;71.58;96151.78;5054514;28;20229;-83
2021/04/08 04:19:21;;;;;;;3.30;2.47;;;;;;;3.02;71.65;96149.13;5036393;28;20245;-81
2021/04/08 04:21:47;;;;;;;2.27;2.07;;;;;;;3.05;70.89;96152.25;5053652;28;20218;-82
2021/04/08 04:24:13;;;;;;;3.17;2.30;;;;;;;3.09;71.15;96158.72;5037433;28;20818;-83
2021/04/08 04:26:39;;;;;;;2.83;2.23;;;;;;;3.01;70.74;96160.22;5033776;28;20253;-82
2021/04/08 04:29:06;;;;;;;10.93;7.13;;;;;;;2.92;71.24;96153.28;5034842;28;20230;-83
2021/04/08 04:31:32;;;;;;;2.77;2.53;;;;;;;2.81;71.28;96161.72;5051892;28;20221;-82
2021/04/08 04:33:59;;;;;;;4.03;2.70;;;;;;;2.80;72.04;96159.28;5046873;28;20197;-81
2021/04/08 04:36:25;;;;;;;2.77;2.33;;;;;;;2.80;72.11;96160.09;5054113;28;20210;-81
2021/04/08 04:38:51;;;;;;;2.93;2.10;;;;;;;2.72;73.82;96164.94;5051506;28;20291;-82
2021/04/08 04:41:17;;;;;;;3.30;2.50;;;;;;;2.78;72.57;96170.38;5035926;28;20226;-81
2021/04/08 04:43:43;;;;;;;2.63;2.40;;;;;;;2.82;71.78;96163.34;5035246;28;20233;-81
2021/04/08 04:46:10;;;;;;;3.20;2.90;;;;;;;2.81;70.94;96178.72;5047280;28;20312;-82
2021/04/08 04:48:37;;;;;;;3.10;2.43;;;;;;;2.77;72.61;96183.22;5046622;28;20284;-81
2021/04/08 04:51:03;;;;;;;3.90;2.47;;;;;;;2.79;70.75;96168.66;5045234;28;20700;-83
2021/04/08 04:53:29;;;;;;;3.73;3.03;;;;;;;2.81;70.51;96176.19;5044295;28;20229;-79
2021/04/08 04:55:55;;;;;;;6.57;3.30;;;;;;;2.78;70.08;96177.22;5048801;28;20236;-81
2021/04/08 04:58:21;;;;;;;3.43;2.50;;;;;;;2.85;70.20;96182.66;5045248;28;20826;-80
2021/04/08 05:00:47;;;;;;;4.27;2.50;;;;;;;2.81;70.02;96176.19;5043851;28;20225;-82
2021/04/08 05:03:13;;;;;;;4.17;2.67;;;;;;;2.87;69.58;96183.34;5047401;28;20260;-84
2021/04/08 05:05:39;;;;;;;2.40;2.20;;;;;;;2.88;68.89;96184.97;5050022;28;20736;-85
2021/04/08 05:08:05;;;;;;;2.90;2.60;;;;;;;2.85;68.51;96187.75;5047009;28;20217;-84
2021/04/08 05:10:31;;;;;;;4.30;2.33;;;;;;;2.86;68.26;96197.00;5043161;28;20573;-83
2021/04/08 05:12:57;;;;;;;4.20;2.47;;;;;;;2.84;68.22;96198.84;5050035;28;20284;-82
2021/04/08 05:15:24;;;;;;;3.43;2.10;;;;;;;2.78;68.49;96195.00;5047555;28;20201;-81
2021/04/08 05:17:50;;;;;;;3.83;2.70;;;;;;;2.72;68.49;96200.53;5050203;28;20233;-83
2021/04/08 05:20:16;;;;;;;3.43;2.40;;;;;;;2.87;68.15;96199.44;5041956;28;20243;-81
2021/04/08 05:22:42;;;;;;;3.43;2.70;;;;;;;2.94;68.38;96198.03;5049979;28;20253;-82
2021/04/08 05:25:09;;;;;;;4.20;2.73;;;;;;;2.95;67.18;96207.28;5048329;28;20688;-83
2021/04/08 05:27:35;;;;;;;4.20;2.80;;;;;;;2.89;67.58;96212.81;5045950;28;20197;-83
2021/04/08 05:30:01;;;;;;;3.30;3.00;;;;;;;2.95;67.55;96214.09;5044930;28;20953;-83
2021/04/08 05:32:28;;;;;;;3.40;3.10;;;;;;;2.96;68.32;96215.72;5049909;28;20294;-82
2021/04/08 05:34:54;;;;;;;4.07;2.87;;;;;;;2.97;67.76;96214.78;5047768;28;20233;-81
2021/04/08 05:37:20;;;;;;;4.00;3.20;;;;;;;2.91;67.83;96226.22;5049687;28;20664;-80
2021/04/08 05:39:46;;;;;;;5.43;3.33;;;;;;;2.96;68.27;96224.16;5048793;28;20217;-84
2021/04/08 05:42:12;;;;;;;4.63;3.63;;;;;;;3.05;68.11;96226.03;5052571;28;20222;-85
2021/04/08 05:44:38;;;;;;;5.03;3.00;;;;;;;3.02;68.20;96236.44;5049619;28;20797;-84
2021/04/08 05:47:04;;;;;;;3.77;3.47;;;;;;;3.02;68.73;96233.06;5051420;28;20225;-85
2021/04/08 05:49:31;;;;;;;4.07;3.17;;;;;;;2.97;68.11;96227.50;5038261;28;20225;-82
2021/04/08 05:51:57;;;;;;;4.63;3.17;;;;;;;3.00;68.03;96237.47;5050691;28;20194;-85
2021/04/08 05:54:23;;;;;;;4.97;3.60;;;;;;;3.01;67.73;96234.00;5043596;28;20763;-83
2021/04/08 05:56:49;;;;;;;3.60;3.20;;;;;;;3.08;67.21;96235.94;5049635;28;20240;-83
2021/04/08 05:59:15;;;;;;;5.27;3.33;;;;;;;3.07;67.30;96236.91;5048216;28;20236;-82
2021/04/08 06:01:41;;;;;;;3.67;3.17;;;;;;;3.10;67.17;96246.00;5049549;28;20230;-84
2021/04/08 06:04:07;;;;;;;3.50;2.87;;;;;;;3.18;67.30;96245.44;5043732;28;20232;-83
2021/04/08 06:06:34;;;;;;;4.10;3.00;;;;;;;3.23;66.48;96254.38;5049852;28;20194;-85
2021/04/08 06:09:00;;;;;;;3.60;3.10;;;;;;;3.28;67.03;96252.28;5043664;28;20225;-84
2021/04/08 06:11:26;;;;;;;3.60;2.87;;;;;;;3.23;66.24;96251.81;5046769;28;20241;-85
2021/04/08 06:13:52;;;;;;;3.97;2.80;;;;;;;3.27;66.41;96258.28;5050264;28;20240;-84
2021/04/08 06:16:18;;;;;;;4.23;2.97;;;;;;;3.33;66.52;96257.84;5045518;28;20221;-84
2021/04/08 06:18:44;;;;;;;3.30;3.00;;;;;;;3.36;66.29;96267.78;5048164;28;20240;-83
2021/04/08 06:21:10;;;;;;;3.90;3.07;;;;;;;3.42;66.61;96262.25;5049110;28;20221;-82
2021/04/08 06:23:37;;;;;;;3.63;2.90;;;;;;;3.47;65.89;96265.22;5042027;28;20229;-82
2021/04/08 06:26:03;;;;;;;2.87;2.60;;;;;;;3.46;65.63;96255.97;5046790;28;20230;-84
2021/04/08 06:28:29;;;;;;;4.67;3.03;;;;;;;3.50;65.69;96263.38;5045830;28;20220;-82
2021/04/08 06:30:55;;;;;;;6.03;2.70;;;;;;;3.58;65.41;96278.91;5032198;28;20218;-83
2021/04/08 06:33:21;;;;;;;5.33;2.50;;;;;;;3.53;65.30;96276.69;5047267;28;20195;-83
2021/04/08 06:35:47;;;;;;;6.47;3.70;;;;;;;3.55;65.46;96282.47;5047600;28;20223;-85
2021/04/08 06:38:13;;;;;;;4.70;3.20;;;;;;;3.58;65.37;96282.25;5049453;28;20623;-85
2021/04/08 06:40:40;;;;;;;3.30;3.00;;;;;;;3.68;65.44;96285.69;5047572;28;20245;-83
2021/04/08 06:43:10;;;;;;;6.07;3.10;;;;;;;3.72;64.64;96289.66;5049431;28;20237;-84
2021/04/08 06:45:38;;;;;;;4.47;2.30;;;;;;;3.87;64.50;96294.47;5048273;28;20209;-82
2021/04/08 06:48:08;;;;;;;5.00;2.70;;;;;;;4.00;64.22;96293.44;5050617;28;21049;-85
2021/04/08 06:50:37;;;;;;;3.60;3.00;;;;;;;4.03;64.58;96295.75;5048204;28;20228;-84
2021/04/08 06:53:04;;;;;;;5.03;3.43;;;;;;;4.07;64.42;96293.75;5048725;28;20210;-83
2021/04/08 06:55:30;;;;;;;3.93;2.90;;;;;;;4.07;64.25;96288.66;5040351;28;20222;-83
2021/04/08 06:57:58;;;;;;;3.97;3.07;;;;;;;4.15;64.93;96289.69;5041514;28;20255;-84
2021/04/08 07:00:24;;;;;;;3.77;2.77;;;;;;;4.23;65.37;96298.50;5048883;28;20320;-84
2021/04/08 07:02:51;;;;;;;4.07;2.70;;;;;;;4.41;67.60;96297.88;5048685;28;20241;-80
2021/04/08 07:05:17;;;;;;;4.73;2.77;;;;;;;4.50;67.33;96296.31;5048799;28;20224;-82
2021/04/08 07:07:43;;;;;;;2.90;2.50;;;;;;;4.62;67.64;96299.66;5048358;28;20229;-84
2021/04/08 07:10:10;;;;;;;4.57;2.80;;;;;;;4.70;63.68;96294.72;5048243;28;20225;-84
2021/04/08 07:12:38;;;;;;;5.57;3.00;;;;;;;4.89;65.04;96310.16;5047835;28;20574;-84
2021/04/08 07:15:07;;;;;;;6.07;2.97;;;;;;;4.97;61.69;96307.00;5049634;28;20285;-83
2021/04/08 07:17:33;;;;;;;5.57;3.17;;;;;;;4.79;61.11;96317.78;5046928;28;20244;-85
2021/04/08 07:19:59;;;;;;;3.57;3.00;;;;;;;4.67;60.83;96316.19;5042702;28;20229;-85
2021/04/08 07:22:26;;;;;;;4.17;3.40;;;;;;;4.58;61.77;96316.94;5048717;28;20225;-84
2021/04/08 07:24:53;;;;;;;5.93;3.20;;;;;;;4.59;62.29;96318.53;5050812;28;20255;-84
2021/04/08 07:27:21;;;;;;;4.50;3.33;;;;;;;4.50;61.37;96316.72;5052895;28;20192;-83
2021/04/08 07:29:52;;;;;;;3.93;3.20;;;;;;;4.51;62.58;96321.69;5051365;28;20880;-85
2021/04/08 07:32:38;;;;;;;4.73;3.40;;;;;;;4.46;62.63;96318.69;5051693;28;20213;-86
2021/04/08 07:35:13;;;;;;;3.87;3.17;;;;;;;4.42;62.21;96319.88;5047279;28;20229;-84
2021/04/08 07:37:39;;;;;;;6.03;3.23;;;;;;;4.31;62.80;96330.09;5050833;28;23066;-82
2021/04/08 07:40:14;;;;;;;3.50;3.10;;;;;;;4.30;62.66;96333.56;5049326;28;20236;-87
2021/04/08 07:42:40;;;;;;;6.67;3.80;;;;;;;4.30;62.41;96333.56;5045029;28;20197;-85
2021/04/08 07:45:08;;;;;;;4.27;3.40;;;;;;;4.31;62.81;96337.72;5051318;28;20234;-85
2021/04/08 07:47:36;;;;;;;4.23;3.30;;;;;;;4.30;62.65;96341.22;5049724;28;20229;-84
2021/04/08 07:50:14;;;;;;;5.20;3.27;;;;;;;4.38;62.04;96354.19;5052496;28;20225;-85
2021/04/08 07:52:42;;;;;;;4.37;3.50;;;;;;;4.38;62.38;96343.97;5046449;28;20288;-84
2021/04/08 07:55:11;;;;;;;4.97;3.50;;;;;;;4.58;62.40;96349.25;5047999;28;20225;-85
2021/04/08 07:58:06;;;;;;;5.67;3.17;;;;;;;4.52;61.67;96342.91;5048992;28;20209;-82
2021/04/08 08:00:33;;;;;;;3.80;3.37;;;;;;;4.60;61.88;96353.31;5003805;28;20229;-83
2021/04/08 08:03:02;;;;;;;4.27;3.43;;;;;;;4.50;62.01;96354.97;5051737;28;20709;-82
2021/04/08 08:05:30;;;;;;;5.30;3.37;;;;;;;4.41;61.39;96358.25;5049253;28;20304;-84
2021/04/08 08:08:11;;;;;;;8.23;3.20;;;;;;;4.41;62.18;96361.59;5044606;28;20229;-85
2021/04/08 08:10:40;;;;;;;5.43;3.40;;;;;;;4.28;62.51;96378.75;5050024;28;20275;-85
2021/04/08 08:13:08;;;;;;;4.83;3.60;;;;;;;4.09;63.13;96376.81;5052298;28;20232;-82
2021/04/08 08:15:41;;;;;;;6.73;3.30;;;;;;;4.08;63.47;96370.09;5049820;28;20206;-83
2021/04/08 08:18:07;;;;;;;7.03;3.73;;;;;;;3.96;63.90;96377.88;5050807;28;20252;-84
2021/04/08 08:20:34;;;;;;;4.00;3.60;;;;;;;4.04;64.12;96376.34;5051139;28;20233;-82
2021/04/08 08:23:00;;;;;;;4.10;3.47;;;;;;;3.99;63.50;96383.53;5051545;28;20247;-81
2021/04/08 08:25:28;;;;;;;4.50;3.33;;;;;;;3.92;64.06;96387.47;5051194;28;20237;-84
2021/04/08 08:27:56;;;;;;;4.63;3.63;;;;;;;3.89;65.12;96384.34;5051011;28;20201;-82
2021/04/08 08:30:30;;;;;;;7.13;3.83;;;;;;;3.93;65.28;96390.81;5052213;28;20228;-84
2021/04/08 08:33:14;;;;;;;5.27;3.83;;;;;;;3.94;65.11;96393.25;5044368;28;20224;-83
2021/04/08 08:35:40;;;;;;;4.07;2.97;;;;;;;4.02;64.90;96390.16;5048617;28;20248;-85
2021/04/08 08:38:10;;;;;;;4.50;3.50;;;;;;;4.05;64.55;96390.69;5051063;28;20236;-84
2021/04/08 08:40:38;;;;;;;5.00;3.60;;;;;;;4.04;64.40;96393.38;5050254;28;20754;-84
2021/04/08 08:43:05;;;;;;;4.57;3.50;;;;;;;4.01;64.88;96398.72;5051723;28;20201;-85
2021/04/08 08:45:33;;;;;;;4.67;3.47;;;;;;;4.13;65.30;96403.69;5050625;28;20190;-82
2021/04/08 08:48:02;;;;;;;5.73;3.67;;;;;;;4.34;64.29;96393.59;5050915;28;20221;-84
2021/04/08 08:50:29;;;;;;;3.57;3.27;;;;;;;4.50;63.97;96401.66;5050825;28;20229;-82
2021/04/08 08:53:00;;;;;;;6.33;3.80;;;;;;;4.67;64.55;96392.69;5043211;28;20305;-85
2021/04/08 08:55:27;;;;;;;4.67;3.50;;;;;;;4.73;65.72;96401.63;5049477;28;20213;-82
2021/04/08 08:57:55;;;;;;;5.53;4.33;;;;;;;4.80;66.21;96397.66;5047918;28;20616;-83
2021/04/08 09:00:23;;;;;;;6.40;4.27;;;;;;;4.67;66.12;96404.63;5046103;28;20312;-83
2021/04/08 09:02:49;;;;;;;5.07;4.57;;;;;;;4.75;65.81;96403.13;5050173;28;20291;-84
2021/04/08 09:05:18;;;;;;;5.90;4.17;;;;;;;4.87;65.77;96406.44;5045671;28;20229;-85
2021/04/08 09:07:46;;;;;;;5.17;4.67;;;;;;;4.89;65.53;96401.22;5046132;28;21556;-83
2021/04/08 09:10:15;;;;;;;4.73;4.20;;;;;;;4.97;64.57;96399.69;5040970;28;20249;-85
2021/04/08 09:12:41;;;;;;;5.10;4.57;;;;;;;5.00;64.88;96407.09;5049298;28;20189;-83
2021/04/08 09:15:08;;;;;;;5.03;4.23;;;;;;;5.03;64.68;96400.91;5045887;28;20218;-81
2021/04/08 09:17:39;;;;;;;6.23;4.33;;;;;;;5.25;62.84;96398.28;5052963;28;20225;-82
2021/04/08 09:20:08;;;;;;;4.67;4.10;;;;;;;5.48;62.14;96401.53;5049676;28;20308;-84
2021/04/08 09:22:34;;;;;;;5.30;4.20;;;;;;;5.59;63.24;96403.19;5049956;28;20235;-84
2021/04/08 09:25:01;;;;;;;5.10;4.50;;;;;;;5.61;62.19;96396.22;5050187;28;20216;-85
2021/04/08 09:27:28;;;;;;;6.53;4.50;;;;;;;5.64;60.62;96394.22;5049888;28;20770;-81
2021/04/08 09:29:57;;;;;;;5.63;4.50;;;;;;;5.88;60.37;96388.84;5049400;28;20229;-84
2021/04/08 09:32:28;;;;;;;5.07;3.53;;;;;;;5.87;58.67;96392.31;5050366;28;20256;-84
2021/04/08 09:35:28;;;;;;;5.43;3.90;;;;;;;5.76;56.97;96393.22;5047327;28;20731;-85
2021/04/08 09:38:31;;;;;;;4.73;3.43;;;;;;;5.71;56.29;96392.78;4968690;28;20307;-83
2021/04/08 09:41:05;;;;;;;4.07;3.67;;;;;;;5.72;56.43;96391.84;5042784;28;20236;-85
2021/04/08 09:43:34;;;;;;;3.67;3.37;;;;;;;5.65;57.51;96397.59;5048894;28;20229;-84
2021/04/08 09:46:14;;;;;;;4.43;3.60;;;;;;;5.44;55.55;96397.59;5048964;28;20814;-84
2021/04/08 09:48:52;;;;;;;4.00;3.53;;;;;;;5.30;56.13;96397.91;5048857;28;20235;-82
2021/04/08 09:51:30;;;;;;;4.93;3.23;;;;;;;5.29;55.68;96399.66;5040350;28;20224;-84
2021/04/08 09:54:14;;;;;;;6.33;3.67;;;;;;;5.26;55.63;96399.09;5048493;28;20221;-82
2021/04/08 09:56:59;;;;;;;4.60;2.90;;;;;;;5.27;54.67;96388.75;5040531;28;20235;-83
2021/04/08 09:59:27;;;;;;;3.63;3.17;;;;;;;5.35;54.50;96399.16;5045493;28;20298;-84
2021/04/08 10:01:53;;;;;;;6.37;3.57;;;;;;;5.36;54.13;96390.56;5040084;28;20294;-84
2021/04/08 10:04:26;;;;;;;4.30;3.87;;;;;;;5.46;54.85;96391.44;5050164;28;20236;-86
2021/04/08 10:07:12;;;;;;;6.40;3.90;;;;;;;5.50;54.73;96397.09;5042064;28;20209;-84
2021/04/08 10:09:54;;;;;;;4.67;3.40;;;;;;;5.31;54.25;96389.31;5049190;28;20355;-82
2021/04/08 10:12:29;;;;;;;4.40;3.37;;;;;;;5.14;55.26;96396.59;5041713;28;20210;-85
2021/04/08 10:15:02;;;;;;;3.57;3.27;;;;;;;5.34;54.78;96396.72;5042358;28;20784;-86
2021/04/08 10:17:35;;;;;;;5.43;3.50;;;;;;;5.69;55.10;96397.22;5048905;28;20738;-83
2021/04/08 10:20:05;;;;;;;5.77;3.40;;;;;;;5.83;53.92;96390.97;5049302;28;20276;-86
2021/04/08 10:22:39;;;;;;;4.37;3.50;;;;;;;5.84;51.97;96388.28;5048606;28;20251;-84
2021/04/08 10:25:07;;;;;;;3.70;3.30;;;;;;;5.88;50.95;96383.72;5044841;28;20194;-83
2021/04/08 10:27:33;;;;;;;6.03;3.50;;;;;;;6.06;52.67;96387.31;5046530;28;20197;-84
2021/04/08 10:30:10;;;;;;;4.40;3.30;;;;;;;6.18;52.24;96388.84;5046333;28;20729;-84
2021/04/08 10:32:38;;;;;;;3.63;3.00;;;;;;;6.66;51.46;96384.81;5047782;28;20233;-85
2021/04/08 10:35:17;;;;;;;3.97;3.30;;;;;;;6.79;49.55;96380.22;5045638;28;20546;-84
2021/04/08 10:37:43;;;;;;;3.43;3.13;;;;;;;6.59;49.09;96380.19;5046255;28;20220;-84
2021/04/08 10:40:10;;;;;;;5.33;3.33;;;;;;;6.66;49.98;96377.94;5045671;28;20624;-84
2021/04/08 10:42:36;;;;;;;3.60;3.30;;;;;;;6.70;49.89;96379.28;5047469;28;20593;-85
2021/04/08 10:45:07;;;;;;;3.70;3.30;;;;;;;6.58;49.58;96382.88;5042571;28;20225;-84
2021/04/08 10:47:34;;;;;;;3.77;3.37;;;;;;;6.49;50.66;96376.84;5042373;28;20241;-85
2021/04/08 10:50:02;;;;;;;4.00;3.57;;;;;;;6.54;51.50;96372.09;5044909;28;20229;-86
2021/04/08 10:52:30;;;;;;;4.93;3.33;;;;;;;6.65;51.69;96375.50;5041381;28;20226;-82
2021/04/08 10:54:58;;;;;;;5.30;4.20;;;;;;;6.72;53.28;96381.72;5047718;28;20276;-83
2021/04/08 10:57:25;;;;;;;4.60;4.10;;;;;;;6.83;54.05;96377.28;5048292;28;20201;-81
2021/04/08 10:59:52;;;;;;;4.93;4.40;;;;;;;6.78;55.91;96383.72;5051516;28;20300;-82
2021/04/08 11:02:20;;;;;;;4.47;4.07;;;;;;;7.01;55.09;96376.59;5052793;28;20241;-86
2021/04/08 11:04:47;;;;;;;4.47;3.80;;;;;;;6.94;49.76;96381.44;5047897;28;20290;-83
2021/04/08 11:07:13;;;;;;;5.20;3.30;;;;;;;6.86;50.42;96378.75;5043384;28;20321;-84
2021/04/08 11:09:39;;;;;;;5.03;3.17;;;;;;;7.09;49.69;96385.25;5050820;28;20244;-84
2021/04/08 11:12:16;;;;;;;3.70;3.40;;;;;;;7.50;49.31;96375.63;5047953;28;20222;-84
2021/04/08 11:14:46;;;;;;;4.70;3.47;;;;;;;7.60;48.63;96364.41;5050762;28;20221;-82
2021/04/08 11:17:13;;;;;;;4.80;3.83;;;;;;;7.72;52.68;96382.16;5051310;28;20596;-83
2021/04/08 11:19:41;;;;;;;7.87;4.17;;;;;;;7.95;51.44;96381.69;5050528;28;20233;-82
2021/04/08 11:22:11;;;;;;;5.17;4.10;;;;;;;7.86;52.96;96381.75;5052951;28;20228;-83
2021/04/08 11:24:37;;;;;;;4.63;4.10;;;;;;;7.75;52.57;96385.25;5045942;28;20232;-83
2021/04/08 11:27:04;;;;;;;7.03;4.17;;;;;;;7.63;52.67;96382.06;5045729;28;20711;-81
2021/04/08 11:29:30;;;;;;;5.07;4.07;;;;;;;7.54;53.54;96380.31;5050552;28;20279;-82
2021/04/08 11:32:01;;;;;;;5.57;4.43;;;;;;;7.45;54.25;96373.47;5052615;28;20324;-84
2021/04/08 11:34:42;;;;;;;4.60;3.83;;;;;;;7.40;54.32;96378.19;5047572;28;20552;-83
2021/04/08 11:37:10;;;;;;;4.87;4.30;;;;;;;7.33;54.02;96382.25;5046927;28;20668;-84
2021/04/08 11:39:36;;;;;;;5.07;4.20;;;;;;;7.33;54.67;96377.13;5050642;28;20312;-81
2021/04/08 11:42:17;;;;;;;5.90;4.60;;;;;;;7.30;54.47;96372.28;5052612;28;20233;-81
2021/04/08 11:44:43;;;;;;;4.90;4.27;;;;;;;7.33;54.53;96374.56;5050793;28;20228;-83
2021/04/08 11:47:14;;;;;;;5.53;4.40;;;;;;;7.26;52.53;96370.94;5046613;28;20344;-85
2021/04/08 11:49:45;;;;;;;5.10;4.03;;;;;;;7.15;52.60;96364.19;5051952;28;20294;-83